Time;durP1;ratioP1;P1;durP2;ratioP2;P2;SDS_P1;SDS_P2;PMS_P1;PMS_P2;Temp;Humidity;BMP_temperature;BMP_pressure;BME280_temperature;BME280_humidity;BME280_pressure;Samples;Min_cycle;Max_cycle;Signal;HPM_P1;HPM_P2
2023/09/26 00:00:20;;;;;;;19.60;12.30;;;;;;;12.18;100.00;101892.94;4900451;29;20548;-88
2023/09/26 00:02:46;;;;;;;18.27;12.23;;;;;;;12.15;100.00;101884.97;4919108;29;20387;-88
2023/09/26 00:05:13;;;;;;;24.83;13.50;;;;;;;12.22;100.00;101879.91;4934920;29;20039;-88
2023/09/26 00:07:38;;;;;;;19.45;12.60;;;;;;;12.42;100.00;101897.75;4907559;29;20032;-89
2023/09/26 00:10:05;;;;;;;18.08;11.63;;;;;;;12.34;100.00;101892.78;4911143;29;20047;-89
2023/09/26 00:12:31;;;;;;;20.48;10.75;;;;;;;12.17;100.00;101888.47;4897196;29;20131;-88
2023/09/26 00:14:57;;;;;;;19.58;11.93;;;;;;;12.27;100.00;101892.31;4945434;29;20126;-88
2023/09/26 00:17:22;;;;;;;22.95;11.55;;;;;;;12.25;100.00;101898.94;4921825;29;20039;-88
2023/09/26 00:19:48;;;;;;;16.08;10.75;;;;;;;12.28;100.00;101896.84;4902438;29;20055;-88
2023/09/26 00:22:13;;;;;;;16.48;12.15;;;;;;;12.02;100.00;101893.16;4926510;29;20529;-88
2023/09/26 00:24:38;;;;;;;20.65;13.70;;;;;;;12.20;100.00;101891.00;4937425;29;20031;-88
2023/09/26 00:27:04;;;;;;;27.48;13.20;;;;;;;12.11;100.00;101891.63;4901317;29;20028;-88
2023/09/26 00:29:31;;;;;;;22.08;12.15;;;;;;;12.17;100.00;101888.47;4916396;29;20028;-88
2023/09/26 00:32:01;;;;;;;24.05;10.82;;;;;;;11.99;100.00;101887.88;4925430;29;20115;-88
2023/09/26 00:34:28;;;;;;;19.30;12.65;;;;;;;11.99;100.00;101884.25;4934152;29;20027;-88
2023/09/26 00:36:54;;;;;;;18.38;10.95;;;;;;;12.00;100.00;101886.88;4936478;29;20491;-88
2023/09/26 00:39:21;;;;;;;17.65;11.60;;;;;;;11.90;100.00;101872.88;4932108;29;20038;-88
2023/09/26 00:41:47;;;;;;;14.35;11.50;;;;;;;11.95;100.00;101876.22;4933710;29;20036;-79
2023/09/26 00:44:13;;;;;;;16.17;11.35;;;;;;;11.89;100.00;101879.34;4926576;29;20454;-79
2023/09/26 00:46:39;;;;;;;16.63;12.07;;;;;;;11.82;100.00;101880.72;4929028;29;20039;-79
2023/09/26 00:49:06;;;;;;;21.83;12.00;;;;;;;11.95;100.00;101878.97;4920662;29;20039;-79
2023/09/26 00:51:32;;;;;;;24.70;12.00;;;;;;;11.93;100.00;101880.03;4932000;29;20123;-79
2023/09/26 00:53:58;;;;;;;22.38;12.02;;;;;;;11.97;100.00;101883.47;4931094;28;20028;-78
2023/09/26 00:56:24;;;;;;;20.35;13.15;;;;;;;11.82;100.00;101878.00;4935355;29;20040;-79
2023/09/26 00:58:51;;;;;;;24.83;13.00;;;;;;;11.95;100.00;101878.06;4929240;29;20031;-79
2023/09/26 01:01:17;;;;;;;17.90;12.38;;;;;;;12.02;100.00;101875.78;4930306;29;20039;-79
2023/09/26 01:03:45;;;;;;;18.13;12.30;;;;;;;11.88;100.00;101871.22;4926776;29;20092;-79
2023/09/26 01:06:11;;;;;;;19.85;12.68;;;;;;;11.89;100.00;101873.88;4928884;29;20035;-79
2023/09/26 01:08:37;;;;;;;27.77;11.70;;;;;;;11.91;100.00;101876.50;4914604;29;20096;-79
2023/09/26 01:11:03;;;;;;;21.88;12.55;;;;;;;11.78;100.00;101869.09;4928166;29;20103;-79
2023/09/26 01:13:28;;;;;;;25.92;12.45;;;;;;;11.69;100.00;101871.59;4931130;29;20402;-79
2023/09/26 01:15:54;;;;;;;15.82;11.40;;;;;;;11.87;100.00;101873.09;4934534;29;20031;-78
2023/09/26 01:18:23;;;;;;;17.85;12.20;;;;;;;11.80;100.00;101868.13;4935573;29;20063;-79
2023/09/26 01:20:49;;;;;;;16.20;12.00;;;;;;;11.80;100.00;101870.88;4934392;29;20047;-79
2023/09/26 01:23:15;;;;;;;19.17;12.70;;;;;;;11.71;100.00;101862.28;4941739;29;20043;-78
2023/09/26 01:25:42;;;;;;;17.05;11.77;;;;;;;11.76;100.00;101870.19;4946346;28;20399;-79
2023/09/26 01:28:09;;;;;;;18.60;12.23;;;;;;;11.76;100.00;101870.19;4936092;29;20110;-78
2023/09/26 01:30:35;;;;;;;19.65;12.07;;;;;;;11.77;100.00;101861.88;4916840;29;20035;-78
2023/09/26 01:33:02;;;;;;;19.98;11.82;;;;;;;11.74;100.00;101864.81;4935836;29;20597;-78
2023/09/26 01:35:28;;;;;;;19.58;12.30;;;;;;;11.68;100.00;101867.09;4931889;29;20082;-79
2023/09/26 01:37:53;;;;;;;23.38;12.35;;;;;;;11.63;100.00;101864.66;4936058;29;20466;-79
2023/09/26 01:40:18;;;;;;;21.02;12.23;;;;;;;11.80;100.00;101854.41;4935216;29;20050;-78
2023/09/26 01:42:44;;;;;;;18.25;12.43;;;;;;;11.70;100.00;101848.66;4933468;29;20027;-79
2023/09/26 01:45:10;;;;;;;25.52;14.02;;;;;;;11.70;100.00;101852.28;4935085;29;20029;-79
2023/09/26 01:47:48;;;;;;;15.15;11.93;;;;;;;11.78;100.00;101851.75;4934293;29;20031;-78
2023/09/26 01:50:19;;;;;;;17.15;12.18;;;;;;;11.73;100.00;101853.94;4937736;29;20026;-79
2023/09/26 01:52:45;;;;;;;17.25;11.70;;;;;;;11.68;100.00;101847.91;4937635;29;20507;-88
2023/09/26 01:55:18;;;;;;;17.45;11.88;;;;;;;11.63;100.00;101839.97;4923462;29;20036;-88
2023/09/26 01:57:43;;;;;;;18.40;12.57;;;;;;;11.61;100.00;101849.28;4938756;29;20422;-88
2023/09/26 02:00:12;;;;;;;21.13;12.75;;;;;;;11.67;100.00;101844.25;4937032;29;20034;-90
2023/09/26 02:02:44;;;;;;;21.80;12.45;;;;;;;11.75;100.00;101849.22;4933225;29;20402;-89
2023/09/26 02:05:11;;;;;;;22.55;11.75;;;;;;;11.82;100.00;101850.56;4936328;29;20037;-88
2023/09/26 02:07:37;;;;;;;17.45;11.98;;;;;;;11.64;100.00;101852.72;4935839;29;20019;-89
2023/09/26 02:10:04;;;;;;;16.30;11.48;;;;;;;11.77;100.00;101845.41;4920528;29;20043;-88
2023/09/26 02:12:41;;;;;;;18.77;12.02;;;;;;;11.61;100.00;101843.78;4921604;29;20024;-87
2023/09/26 02:15:08;;;;;;;20.48;11.73;;;;;;;11.67;100.00;101837.88;4922133;29;20043;-88
2023/09/26 02:17:38;;;;;;;14.82;10.90;;;;;;;11.58;100.00;101843.03;4903393;29;20154;-88
2023/09/26 02:20:08;;;;;;;16.63;10.55;;;;;;;11.65;100.00;101839.88;4937666;29;20048;-88
2023/09/26 02:22:35;;;;;;;16.67;11.25;;;;;;;11.56;100.00;101839.50;4921750;29;20122;-88
2023/09/26 02:25:01;;;;;;;16.42;10.85;;;;;;;11.45;100.00;101849.44;4919942;29;20032;-89
2023/09/26 02:27:26;;;;;;;20.10;10.63;;;;;;;11.57;100.00;101852.22;4888379;29;20042;-89
2023/09/26 02:29:51;;;;;;;15.68;10.88;;;;;;;11.53;100.00;101836.97;4901261;29;20036;-88
2023/09/26 02:32:17;;;;;;;19.35;10.88;;;;;;;11.51;100.00;101857.25;4905464;29;20046;-88
2023/09/26 02:34:42;;;;;;;16.75;11.32;;;;;;;11.44;100.00;101847.69;4904804;29;20119;-88
2023/09/26 02:37:07;;;;;;;14.98;11.30;;;;;;;11.47;100.00;101842.00;4888882;29;20046;-88
2023/09/26 02:39:33;;;;;;;16.25;11.55;;;;;;;11.35;100.00;101838.22;4917073;29;20127;-88
2023/09/26 02:41:59;;;;;;;17.70;10.68;;;;;;;11.41;100.00;101851.50;4903038;29;20040;-88
2023/09/26 02:44:25;;;;;;;15.40;10.98;;;;;;;11.38;100.00;101846.25;4901065;29;20020;-88
2023/09/26 02:46:50;;;;;;;28.73;12.60;;;;;;;11.41;100.00;101837.78;4909461;29;20510;-88
2023/09/26 02:49:16;;;;;;;22.08;12.13;;;;;;;11.48;100.00;101835.50;4908133;29;20067;-88
2023/09/26 02:51:41;;;;;;;16.20;10.75;;;;;;;11.44;100.00;101826.59;4903472;29;20083;-89
2023/09/26 02:54:08;;;;;;;19.92;11.48;;;;;;;11.38;100.00;101825.16;4912641;29;20553;-88
2023/09/26 02:56:34;;;;;;;16.90;12.00;;;;;;;11.35;100.00;101819.88;4893281;29;20051;-88
2023/09/26 02:58:59;;;;;;;15.27;10.80;;;;;;;11.35;100.00;101819.03;4905381;29;20066;-87
2023/09/26 03:01:25;;;;;;;18.60;11.80;;;;;;;11.44;100.00;101815.63;4903565;29;20074;-78
2023/09/26 03:03:53;;;;;;;23.17;11.80;;;;;;;11.44;100.00;101820.25;4910108;29;20044;-77
2023/09/26 03:06:18;;;;;;;14.90;10.70;;;;;;;11.54;100.00;101821.38;4927680;29;20554;-78
2023/09/26 03:08:44;;;;;;;20.80;11.40;;;;;;;11.48;100.00;101819.94;4910794;29;20031;-77
2023/09/26 03:11:09;;;;;;;13.60;10.38;;;;;;;11.42;100.00;101817.63;4919002;29;20059;-77
2023/09/26 03:13:35;;;;;;;21.25;11.25;;;;;;;11.39;100.00;101807.72;4941940;29;20035;-79
2023/09/26 03:16:01;;;;;;;21.75;11.60;;;;;;;11.34;100.00;101814.50;4935590;29;20043;-80
2023/09/26 03:18:27;;;;;;;22.00;10.55;;;;;;;11.47;100.00;101809.94;4937686;29;20079;-78
2023/09/26 03:20:53;;;;;;;20.60;12.10;;;;;;;11.49;100.00;101809.84;4910077;29;20486;-79
2023/09/26 03:23:21;;;;;;;19.27;10.60;;;;;;;11.28;100.00;101803.94;4917809;29;20028;-79
2023/09/26 03:25:46;;;;;;;22.00;12.57;;;;;;;11.24;100.00;101806.00;4911283;29;20039;-80
2023/09/26 03:28:12;;;;;;;20.02;12.75;;;;;;;11.20;100.00;101796.25;4913552;29;20035;-80
2023/09/26 03:30:40;;;;;;;21.35;11.88;;;;;;;11.26;100.00;101794.94;4921796;29;20036;-80
2023/09/26 03:33:05;;;;;;;23.50;13.00;;;;;;;11.29;100.00;101792.88;4933606;29;20048;-80
2023/09/26 03:35:31;;;;;;;20.55;11.38;;;;;;;11.09;100.00;101796.09;4903770;29;20063;-80
2023/09/26 03:37:56;;;;;;;21.70;11.48;;;;;;;11.13;100.00;101790.28;4916206;29;20036;-79
2023/09/26 03:40:22;;;;;;;17.65;10.65;;;;;;;11.15;100.00;101787.44;4912638;29;20091;-80
2023/09/26 03:42:47;;;;;;;23.35;11.38;;;;;;;11.16;100.00;101773.63;4932304;29;20037;-80
2023/09/26 03:45:12;;;;;;;27.08;10.73;;;;;;;11.18;100.00;101788.13;4914627;29;20126;-79
2023/09/26 03:47:38;;;;;;;17.35;11.88;;;;;;;11.09;100.00;101794.22;4914373;29;20499;-80
2023/09/26 03:50:04;;;;;;;18.75;10.98;;;;;;;11.07;100.00;101796.19;4886595;29;20047;-80
2023/09/26 03:52:29;;;;;;;18.45;12.30;;;;;;;11.07;100.00;101793.44;4897082;29;20054;-80
2023/09/26 03:54:56;;;;;;;18.90;11.73;;;;;;;11.18;100.00;101793.63;4894788;29;20119;-79
2023/09/26 03:57:21;;;;;;;25.15;12.55;;;;;;;11.16;100.00;101791.94;4900550;29;20055;-80
2023/09/26 03:59:50;;;;;;;20.33;12.23;;;;;;;11.09;100.00;101794.22;4910675;29;20047;-79
2023/09/26 04:02:16;;;;;;;19.05;11.77;;;;;;;10.89;100.00;101787.31;4911466;29;20038;-79
2023/09/26 04:04:41;;;;;;;23.00;11.60;;;;;;;11.01;100.00;101780.13;4931640;29;20126;-79
2023/09/26 04:07:07;;;;;;;20.45;12.60;;;;;;;10.94;100.00;101782.41;4910093;29;20503;-79
2023/09/26 04:09:35;;;;;;;21.50;11.60;;;;;;;10.84;100.00;101784.88;4916117;29;20039;-79
2023/09/26 04:12:06;;;;;;;30.33;10.80;;;;;;;11.10;100.00;101792.34;4921661;29;20067;-79
2023/09/26 04:14:32;;;;;;;18.02;11.43;;;;;;;11.10;100.00;101793.25;4917052;29;20115;-79
2023/09/26 04:16:57;;;;;;;33.67;12.38;;;;;;;10.97;100.00;101803.22;4915629;29;20573;-79
2023/09/26 04:19:24;;;;;;;20.27;11.95;;;;;;;10.95;100.00;101794.22;4916716;29;20047;-78
2023/09/26 04:21:54;;;;;;;25.42;11.27;;;;;;;11.06;100.00;101804.50;4919185;29;20042;-86
2023/09/26 04:24:20;;;;;;;18.10;11.48;;;;;;;10.96;100.00;101805.09;4926504;29;20059;-84
2023/09/26 04:26:46;;;;;;;18.30;11.38;;;;;;;11.05;100.00;101798.13;4933926;29;20052;-86
2023/09/26 04:29:12;;;;;;;22.02;12.57;;;;;;;10.88;100.00;101795.63;4933381;29;20360;-86
2023/09/26 04:31:37;;;;;;;19.95;11.68;;;;;;;10.83;100.00;101796.78;4913721;29;20503;-80
2023/09/26 04:34:03;;;;;;;21.58;11.75;;;;;;;10.96;100.00;101801.50;4914030;29;20059;-81
2023/09/26 04:36:29;;;;;;;24.08;12.63;;;;;;;10.95;100.00;101797.88;4926882;29;20463;-80
2023/09/26 04:38:54;;;;;;;26.65;12.70;;;;;;;10.99;100.00;101804.91;4929871;29;20106;-81
2023/09/26 04:41:20;;;;;;;20.95;12.15;;;;;;;10.83;100.00;101788.56;4911512;29;20491;-81
2023/09/26 04:43:45;;;;;;;26.92;11.13;;;;;;;10.89;100.00;101795.53;4917589;29;20042;-81
2023/09/26 04:46:16;;;;;;;18.90;11.73;;;;;;;10.71;100.00;101800.34;4901695;29;20032;-80
2023/09/26 04:48:43;;;;;;;17.75;11.95;;;;;;;10.81;100.00;101789.69;4928782;29;20024;-81
2023/09/26 04:51:10;;;;;;;20.30;11.35;;;;;;;10.81;100.00;101785.06;4929972;29;20122;-79
2023/09/26 04:53:36;;;;;;;30.45;12.40;;;;;;;10.73;100.00;101795.63;4927574;29;20039;-79
2023/09/26 04:56:02;;;;;;;21.25;12.38;;;;;;;10.75;100.00;101792.81;4935366;29;20062;-79
2023/09/26 04:58:30;;;;;;;25.15;12.38;;;;;;;10.65;100.00;101795.25;4917112;29;20023;-79
2023/09/26 05:00:56;;;;;;;20.25;12.20;;;;;;;10.57;100.00;101795.75;4932013;29;20123;-79
2023/09/26 05:03:21;;;;;;;26.52;12.10;;;;;;;10.69;100.00;101798.66;4928938;29;20094;-79
2023/09/26 05:05:47;;;;;;;12.80;9.77;;;;;;;10.73;100.00;101795.63;4930457;29;20418;-79
2023/09/26 05:08:12;;;;;;;22.65;10.70;;;;;;;10.79;100.00;101789.78;4935339;28;20066;-79
2023/09/26 05:10:38;;;;;;;19.25;10.90;;;;;;;10.76;100.00;101781.75;4932302;29;20454;-79
2023/09/26 05:13:05;;;;;;;22.38;10.93;;;;;;;10.71;100.00;101772.97;4929587;29;20116;-79
2023/09/26 05:15:33;;;;;;;20.42;11.18;;;;;;;10.68;100.00;101777.75;4935726;29;20107;-79
2023/09/26 05:18:00;;;;;;;21.73;11.95;;;;;;;10.64;100.00;101769.75;4933271;28;20035;-79
2023/09/26 05:20:25;;;;;;;23.65;12.00;;;;;;;10.71;100.00;101772.97;4935518;29;20047;-79
2023/09/26 05:22:51;;;;;;;16.38;12.05;;;;;;;10.71;100.00;101766.56;4927916;28;20035;-79
2023/09/26 05:25:17;;;;;;;18.27;11.48;;;;;;;10.74;100.00;101777.34;4931657;29;20023;-79
2023/09/26 05:27:45;;;;;;;15.40;11.05;;;;;;;10.81;100.00;101771.38;4935307;28;20028;-79
2023/09/26 05:30:13;;;;;;;21.63;11.05;;;;;;;10.87;100.00;101775.59;4926576;29;20036;-79
2023/09/26 05:32:40;;;;;;;28.95;10.68;;;;;;;10.85;100.00;101761.97;4932363;29;20110;-79
2023/09/26 05:35:06;;;;;;;19.25;10.95;;;;;;;10.88;100.00;101776.44;4915355;29;20031;-79
2023/09/26 05:37:33;;;;;;;26.95;11.77;;;;;;;10.87;100.00;101771.94;4929596;29;20017;-79
2023/09/26 05:39:58;;;;;;;38.45;11.32;;;;;;;10.91;100.00;101776.25;4914202;29;20107;-79
2023/09/26 05:42:24;;;;;;;25.35;10.68;;;;;;;10.89;100.00;101775.44;4942348;28;20498;-79
2023/09/26 05:44:49;;;;;;;19.80;10.70;;;;;;;11.07;100.00;101767.88;4911962;29;20036;-79
2023/09/26 05:47:15;;;;;;;23.30;11.77;;;;;;;10.94;100.00;101771.44;4932119;29;20082;-79
2023/09/26 05:49:40;;;;;;;24.10;10.95;;;;;;;10.93;100.00;101772.41;4929781;29;20042;-79
2023/09/26 05:52:05;;;;;;;16.95;10.75;;;;;;;11.07;100.00;101781.56;4911677;29;20086;-80
2023/09/26 05:54:31;;;;;;;17.77;11.07;;;;;;;11.14;100.00;101786.56;4927457;29;20039;-79
2023/09/26 05:56:57;;;;;;;28.58;11.05;;;;;;;11.11;100.00;101778.53;4931634;29;20043;-79
2023/09/26 05:59:22;;;;;;;26.63;11.20;;;;;;;11.17;100.00;101790.97;4930245;29;20043;-79
2023/09/26 06:01:48;;;;;;;26.05;10.15;;;;;;;11.36;100.00;101785.13;4911881;29;20058;-79
2023/09/26 06:04:14;;;;;;;18.38;10.52;;;;;;;11.34;100.00;101782.47;4917729;29;20039;-79
2023/09/26 06:06:39;;;;;;;18.65;11.15;;;;;;;11.43;100.00;101777.34;4925398;29;20106;-79
2023/09/26 06:09:05;;;;;;;16.02;9.25;;;;;;;11.44;100.00;101773.63;4920784;29;20562;-79
2023/09/26 06:11:31;;;;;;;16.55;9.48;;;;;;;11.59;100.00;101789.03;4933437;29;20063;-79
2023/09/26 06:13:57;;;;;;;14.95;9.77;;;;;;;11.64;100.00;101784.13;4934177;29;20415;-79
2023/09/26 06:16:22;;;;;;;16.85;9.70;;;;;;;11.62;100.00;101788.81;4931019;29;20035;-79
2023/09/26 06:18:48;;;;;;;14.23;9.18;;;;;;;11.71;100.00;101785.47;4925752;29;20429;-79
2023/09/26 06:21:14;;;;;;;15.13;8.85;;;;;;;11.87;100.00;101787.13;4930963;29;20070;-79
2023/09/26 06:23:40;;;;;;;14.60;9.43;;;;;;;11.89;100.00;101783.31;4930822;29;20050;-79
2023/09/26 06:26:07;;;;;;;15.27;8.70;;;;;;;12.06;100.00;101786.75;4915883;29;20036;-79
2023/09/26 06:28:34;;;;;;;12.48;8.57;;;;;;;12.29;100.00;101786.00;4924365;29;20120;-79
2023/09/26 06:31:10;;;;;;;19.02;8.32;;;;;;;12.48;100.00;101799.28;4916102;29;20363;-79
2023/09/26 06:33:37;;;;;;;12.52;8.00;;;;;;;12.68;100.00;101788.72;4934056;29;20026;-79
2023/09/26 06:36:18;;;;;;;16.30;7.90;;;;;;;12.65;100.00;101786.19;4935338;29;20036;-80
2023/09/26 06:38:43;;;;;;;19.88;8.82;;;;;;;12.77;100.00;101787.16;4925340;29;20499;-78
2023/09/26 06:41:08;;;;;;;14.55;7.47;;;;;;;13.03;100.00;101787.97;4926547;29;20051;-80
2023/09/26 06:43:36;;;;;;;21.70;7.20;;;;;;;13.01;100.00;101788.09;4897407;29;20036;-79
2023/09/26 06:46:08;;;;;;;10.50;7.00;;;;;;;12.99;100.00;101787.34;4922467;29;20032;-79
2023/09/26 06:48:38;;;;;;;12.60;7.60;;;;;;;13.15;100.00;101777.94;4929606;29;20086;-80
2023/09/26 06:51:03;;;;;;;13.45;7.45;;;;;;;13.14;100.00;101784.44;4926486;29;20041;-80
2023/09/26 06:53:29;;;;;;;12.85;6.80;;;;;;;13.33;100.00;101783.94;4937953;29;20035;-79
2023/09/26 06:56:06;;;;;;;13.55;7.22;;;;;;;13.40;100.00;101780.63;4928437;29;20032;-79
2023/09/26 06:58:32;;;;;;;15.50;7.15;;;;;;;13.33;100.00;101776.59;4930068;29;20027;-78
2023/09/26 07:00:57;;;;;;;11.45;6.68;;;;;;;13.51;100.00;101781.66;4926505;29;20522;-79
2023/09/26 07:03:23;;;;;;;16.52;7.68;;;;;;;13.57;100.00;101778.44;4911406;29;20100;-79
2023/09/26 07:05:49;;;;;;;9.88;6.47;;;;;;;13.68;100.00;101775.75;4930484;29;20040;-81
2023/09/26 07:08:15;;;;;;;20.67;7.03;;;;;;;13.72;100.00;101776.38;4931176;29;20063;-80
2023/09/26 07:10:40;;;;;;;16.45;7.32;;;;;;;13.77;100.00;101777.78;4915679;29;20046;-79
2023/09/26 07:13:06;;;;;;;13.32;7.03;;;;;;;14.12;100.00;101763.09;4923848;29;20036;-79
2023/09/26 07:15:32;;;;;;;10.75;6.40;;;;;;;14.03;100.00;101766.59;4929489;29;20367;-79
2023/09/26 07:17:59;;;;;;;13.32;6.90;;;;;;;14.16;100.00;101769.25;4927809;29;20050;-78
2023/09/26 07:20:28;;;;;;;13.15;7.00;;;;;;;14.29;100.00;101760.88;4924933;29;20052;-78
2023/09/26 07:22:54;;;;;;;11.38;6.55;;;;;;;14.21;100.00;101758.72;4926771;29;20213;-77
2023/09/26 07:25:19;;;;;;;9.73;6.95;;;;;;;14.31;100.00;101758.88;4933116;29;20542;-78
2023/09/26 07:27:45;;;;;;;14.20;6.60;;;;;;;14.27;100.00;101769.25;4935658;29;20039;-78
2023/09/26 07:30:11;;;;;;;17.33;7.85;;;;;;;14.25;100.00;101767.63;4923672;29;20040;-78
2023/09/26 07:32:39;;;;;;;9.48;6.75;;;;;;;14.23;100.00;101778.78;4913896;29;20044;-79
2023/09/26 07:35:05;;;;;;;12.30;7.00;;;;;;;14.34;100.00;101776.03;4915783;29;20047;-79
2023/09/26 07:37:31;;;;;;;15.65;7.20;;;;;;;14.70;100.00;101776.81;4916586;29;20027;-79
2023/09/26 07:39:57;;;;;;;12.98;6.88;;;;;;;14.96;100.00;101778.44;4931116;29;20039;-79
2023/09/26 07:42:22;;;;;;;15.13;6.60;;;;;;;15.13;100.00;101775.16;4927508;29;20031;-79
2023/09/26 07:44:48;;;;;;;12.32;6.78;;;;;;;15.19;100.00;101771.88;4924926;29;20067;-79
2023/09/26 07:47:15;;;;;;;11.93;6.40;;;;;;;15.55;100.00;101774.41;4927332;29;20063;-79
2023/09/26 07:49:40;;;;;;;17.83;6.38;;;;;;;15.51;100.00;101770.16;4930439;29;20571;-80
2023/09/26 07:52:07;;;;;;;12.95;6.53;;;;;;;15.84;100.00;101777.47;4913050;29;20063;-79
2023/09/26 07:54:32;;;;;;;10.88;7.03;;;;;;;15.97;100.00;101780.91;4930535;29;20039;-80
2023/09/26 07:56:58;;;;;;;15.88;7.10;;;;;;;15.90;100.00;101773.28;4927599;29;20099;-81
2023/09/26 07:59:23;;;;;;;12.88;6.55;;;;;;;16.19;100.00;101781.78;4929935;29;20092;-80
2023/09/26 08:01:49;;;;;;;9.57;6.60;;;;;;;16.34;100.00;101779.53;4930865;29;20046;-78
2023/09/26 08:04:14;;;;;;;19.25;6.90;;;;;;;16.49;100.00;101777.28;4926249;29;20559;-79
2023/09/26 08:06:40;;;;;;;10.45;6.78;;;;;;;16.87;100.00;101775.72;4928764;29;20039;-79
2023/09/26 08:09:05;;;;;;;18.20;7.30;;;;;;;16.95;100.00;101775.03;4923889;29;20040;-78
2023/09/26 08:11:31;;;;;;;15.43;6.88;;;;;;;17.07;100.00;101772.03;4914975;29;20098;-79
2023/09/26 08:13:57;;;;;;;13.20;7.07;;;;;;;17.02;100.00;101776.22;4899658;29;20056;-79
2023/09/26 08:16:23;;;;;;;17.30;7.65;;;;;;;17.22;100.00;101779.94;4931306;29;20447;-78
2023/09/26 08:18:50;;;;;;;13.38;7.30;;;;;;;17.49;100.00;101773.69;4929796;29;20047;-78
2023/09/26 08:21:16;;;;;;;9.20;6.75;;;;;;;17.89;100.00;101777.38;4927264;29;20092;-79
2023/09/26 08:23:41;;;;;;;14.77;7.60;;;;;;;17.91;100.00;101784.53;4918210;29;20402;-79
2023/09/26 08:26:10;;;;;;;10.98;6.60;;;;;;;18.21;100.00;101771.50;4914303;29;20148;-79
2023/09/26 08:28:40;;;;;;;12.90;6.35;;;;;;;18.40;100.00;101767.81;4932028;29;20410;-79
2023/09/26 08:31:07;;;;;;;11.10;7.20;;;;;;;18.52;100.00;101757.41;4914465;29;20032;-79
2023/09/26 08:33:34;;;;;;;12.73;6.93;;;;;;;18.16;100.00;101758.06;4930505;29;20087;-79
2023/09/26 08:36:00;;;;;;;8.93;6.25;;;;;;;18.81;100.00;101762.84;4931744;29;20479;-79
2023/09/26 08:38:26;;;;;;;12.73;7.43;;;;;;;18.94;100.00;101744.97;4932242;29;20047;-79
2023/09/26 08:40:52;;;;;;;13.50;7.00;;;;;;;19.10;100.00;101743.28;4933312;29;20063;-79
2023/09/26 08:43:26;;;;;;;10.40;7.28;;;;;;;19.00;100.00;101733.25;4919331;29;20094;-80
2023/09/26 08:45:52;;;;;;;14.10;6.38;;;;;;;19.47;100.00;101727.53;4914071;29;20032;-80
2023/09/26 08:48:18;;;;;;;13.70;7.35;;;;;;;19.22;100.00;101738.38;4912833;29;20086;-79
2023/09/26 08:50:43;;;;;;;11.95;7.18;;;;;;;18.91;100.00;101737.84;4932343;29;20024;-79
2023/09/26 08:53:09;;;;;;;16.10;7.47;;;;;;;19.04;100.00;101738.34;4926870;29;20391;-79
2023/09/26 08:55:38;;;;;;;12.57;7.43;;;;;;;18.92;100.00;101723.81;4927757;29;20513;-79
2023/09/26 08:58:04;;;;;;;14.52;7.05;;;;;;;19.64;100.00;101728.53;4924233;29;20152;-79
2023/09/26 09:00:30;;;;;;;12.02;7.13;;;;;;;19.53;100.00;101743.56;4932816;29;20114;-80
2023/09/26 09:02:55;;;;;;;9.65;7.00;;;;;;;19.22;100.00;101749.50;4910516;29;20031;-79
2023/09/26 09:05:22;;;;;;;14.30;6.70;;;;;;;19.62;100.00;101747.28;4896291;29;20487;-79
2023/09/26 09:07:48;;;;;;;11.98;6.20;;;;;;;20.31;100.00;101741.97;4931169;29;20050;-79
2023/09/26 09:10:16;;;;;;;10.30;6.65;;;;;;;20.42;100.00;101743.59;4895722;29;20027;-79
2023/09/26 09:12:47;;;;;;;9.88;6.20;;;;;;;20.21;100.00;101742.06;4934083;29;20542;-79
2023/09/26 09:15:15;;;;;;;11.32;6.65;;;;;;;20.24;100.00;101747.31;4913143;29;20028;-79
2023/09/26 09:17:52;;;;;;;9.05;6.45;;;;;;;20.19;100.00;101749.72;4929957;29;20031;-79
2023/09/26 09:20:34;;;;;;;11.30;6.95;;;;;;;20.80;100.00;101746.97;4905269;29;20052;-79
2023/09/26 09:23:05;;;;;;;13.13;7.28;;;;;;;20.70;100.00;101752.66;4925830;29;20040;-86
2023/09/26 09:25:37;;;;;;;12.23;6.68;;;;;;;20.82;100.00;101745.75;4931026;29;20471;-85
2023/09/26 09:28:05;;;;;;;13.13;7.20;;;;;;;21.20;100.00;101734.22;4932265;29;20036;-85
2023/09/26 09:30:39;;;;;;;14.85;7.25;;;;;;;21.13;100.00;101725.66;4928499;29;20079;-85
2023/09/26 09:33:06;;;;;;;13.02;7.85;;;;;;;21.07;100.00;101716.09;4923546;29;20170;-85
2023/09/26 09:35:31;;;;;;;12.38;6.25;;;;;;;21.64;100.00;101723.72;4930337;29;20024;-85
2023/09/26 09:37:56;;;;;;;11.93;7.28;;;;;;;21.68;100.00;101718.66;4931182;29;20057;-85
2023/09/26 09:40:24;;;;;;;12.13;6.55;;;;;;;21.83;100.00;101730.84;4935183;29;20038;-86
2023/09/26 09:42:51;;;;;;;9.88;6.75;;;;;;;21.85;100.00;101731.53;4931239;29;20031;-85
2023/09/26 09:45:19;;;;;;;11.25;7.13;;;;;;;21.85;100.00;101728.75;4933391;29;20027;-85
2023/09/26 09:47:47;;;;;;;12.38;7.15;;;;;;;21.61;100.00;101724.06;4930274;29;20036;-85
2023/09/26 09:50:14;;;;;;;13.75;7.65;;;;;;;21.19;100.00;101727.78;4940297;29;20031;-85
2023/09/26 09:52:44;;;;;;;12.80;7.32;;;;;;;21.18;100.00;101722.38;4933465;29;20106;-85
2023/09/26 09:55:22;;;;;;;10.82;7.00;;;;;;;21.19;100.00;101721.34;4931175;29;20427;-85
2023/09/26 09:57:53;;;;;;;12.43;6.65;;;;;;;21.22;100.00;101721.88;4935963;29;20035;-85
2023/09/26 10:00:22;;;;;;;10.25;6.82;;;;;;;21.32;100.00;101718.94;4928581;29;20043;-86
2023/09/26 10:02:48;;;;;;;10.32;7.15;;;;;;;20.89;100.00;101710.63;4926911;29;20039;-85
2023/09/26 10:05:14;;;;;;;12.85;7.65;;;;;;;20.91;100.00;101710.47;4931405;29;20032;-85
2023/09/26 10:07:41;;;;;;;10.18;6.50;;;;;;;20.82;100.00;101705.91;4930841;29;20032;-85
2023/09/26 10:10:09;;;;;;;13.60;7.63;;;;;;;21.28;100.00;101701.69;4935927;29;20396;-85
2023/09/26 10:12:39;;;;;;;13.20;7.40;;;;;;;21.33;100.00;101703.94;4932891;29;20364;-84
2023/09/26 10:15:16;;;;;;;10.23;7.80;;;;;;;21.54;100.00;101694.25;4928735;29;20067;-84
2023/09/26 10:17:43;;;;;;;11.85;7.80;;;;;;;21.62;100.00;101697.91;4933526;29;20059;-84
2023/09/26 10:20:14;;;;;;;13.40;8.25;;;;;;;21.39;100.00;101703.25;4932113;29;20048;-85
2023/09/26 10:22:43;;;;;;;19.40;9.23;;;;;;;21.36;100.00;101702.75;4933718;29;20094;-84
2023/09/26 10:25:16;;;;;;;13.02;8.35;;;;;;;21.55;100.00;101712.75;4923984;29;20032;-85
2023/09/26 10:27:43;;;;;;;;;;;;;;;21.47;100.00;101697.72;4924466;29;20028;-85
2023/09/26 10:30:12;;;;;;;10.35;7.63;;;;;;;21.81;100.00;101691.13;4933814;29;19915;-84
2023/09/26 10:32:42;;;;;;;15.05;7.38;;;;;;;22.11;99.27;101694.22;4927405;29;20126;-85
2023/09/26 10:35:13;;;;;;;14.20;6.93;;;;;;;22.06;98.63;101690.25;4932215;29;20036;-85
2023/09/26 10:37:40;;;;;;;9.27;6.80;;;;;;;22.20;98.73;101692.28;4934700;29;20063;-84
2023/09/26 10:40:11;;;;;;;16.02;8.18;;;;;;;22.43;97.83;101692.44;4931720;29;20126;-84
2023/09/26 10:42:41;;;;;;;8.60;6.38;;;;;;;22.58;99.15;101689.78;4930159;29;20028;-85
2023/09/26 10:45:07;;;;;;;8.43;5.68;;;;;;;22.37;100.00;101698.75;4929974;29;20040;-84
2023/09/26 10:47:36;;;;;;;7.30;5.97;;;;;;;22.26;99.40;101694.38;4929011;29;21281;-85
2023/09/26 10:50:03;;;;;;;15.90;5.63;;;;;;;22.91;99.55;101693.28;4932070;29;20688;-86
2023/09/26 10:52:29;;;;;;;11.25;5.72;;;;;;;22.46;96.30;101689.28;4934485;29;20032;-85
2023/09/26 10:54:55;;;;;;;7.30;4.80;;;;;;;22.48;96.35;101689.09;4932188;29;20171;-85
2023/09/26 10:57:21;;;;;;;6.70;4.47;;;;;;;22.78;95.18;101681.84;4928174;29;20115;-85
2023/09/26 10:59:46;;;;;;;7.32;3.45;;;;;;;22.56;93.00;101678.78;4934121;29;20788;-85
2023/09/26 11:02:12;;;;;;;5.60;3.90;;;;;;;22.47;89.66;101684.59;4937258;29;20023;-85
2023/09/26 11:04:38;;;;;;;5.65;3.30;;;;;;;22.06;93.81;101676.28;4928768;29;20119;-85